createdAt,value
2023-03-27T00:00:35.605Z,0.70
2023-03-27T00:03:38.708Z,0.32
2023-03-27T00:06:45.550Z,0.50
2023-03-27T00:09:48.085Z,0.83
2023-03-27T00:12:51.016Z,0.40
2023-03-27T00:15:54.837Z,0.60
2023-03-27T00:22:01.129Z,0.40
2023-03-27T00:25:05.124Z,2.37
2023-03-27T00:28:08.682Z,0.50
2023-03-27T00:31:11.851Z,0.77
2023-03-27T00:34:14.589Z,1.42
2023-03-27T00:37:18.484Z,1.10
2023-03-27T00:40:21.744Z,0.60
2023-03-27T00:43:26.687Z,1.40
2023-03-27T00:46:35.950Z,1.33
2023-03-27T00:49:38.623Z,1.03
2023-03-27T00:52:44.600Z,0.80
2023-03-27T00:55:49.542Z,0.60
2023-03-27T00:58:54.002Z,1.00
2023-03-27T01:01:56.807Z,0.67
2023-03-27T01:04:59.840Z,0.68
2023-03-27T01:08:04.646Z,1.98
2023-03-27T01:11:13.362Z,0.60
2023-03-27T01:14:23.206Z,1.43
2023-03-27T01:17:43.195Z,0.77
2023-03-27T01:21:18.368Z,0.50
2023-03-27T01:24:38.138Z,0.70
2023-03-27T01:28:04.510Z,0.80
2023-03-27T01:31:15.334Z,0.60
2023-03-27T01:34:34.667Z,0.87
2023-03-27T01:37:48.011Z,1.00
2023-03-27T01:40:59.335Z,0.80
2023-03-27T01:44:05.059Z,0.77
2023-03-27T01:47:11.205Z,0.73
2023-03-27T01:50:20.051Z,0.77
2023-03-27T01:53:27.069Z,0.70
2023-03-27T01:56:33.883Z,1.47
2023-03-27T01:59:39.211Z,1.90
2023-03-27T02:02:43.366Z,1.40
2023-03-27T02:05:47.608Z,1.50
2023-03-27T02:08:52.115Z,3.13
2023-03-27T02:11:59.880Z,1.00
2023-03-27T02:15:23.970Z,1.77
2023-03-27T02:18:31.479Z,2.07
2023-03-27T02:21:34.068Z,1.97
2023-03-27T02:24:38.718Z,4.60
2023-03-27T02:27:46.657Z,4.33
2023-03-27T02:31:05.709Z,3.37
2023-03-27T02:34:51.076Z,7.33
2023-03-27T02:37:59.721Z,6.47
2023-03-27T02:41:08.760Z,8.97
2023-03-27T02:44:17.046Z,11.57
2023-03-27T02:47:24.632Z,9.37
2023-03-27T02:50:30.021Z,8.43
2023-03-27T02:53:36.752Z,11.37
2023-03-27T02:56:44.738Z,7.33
2023-03-27T02:59:51.995Z,11.40
2023-03-27T03:03:00.165Z,8.30
2023-03-27T03:06:07.016Z,3.73
2023-03-27T03:09:10.383Z,16.33
2023-03-27T03:12:12.911Z,11.48
2023-03-27T03:15:18.628Z,9.53
2023-03-27T03:18:21.219Z,11.77
2023-03-27T03:21:24.411Z,10.67
2023-03-27T03:24:27.618Z,15.60
2023-03-27T03:27:31.207Z,15.30
2023-03-27T03:30:37.428Z,12.43
2023-03-27T03:33:40.092Z,15.30
2023-03-27T03:36:43.072Z,9.07
2023-03-27T03:39:45.652Z,9.43
2023-03-27T03:42:49.128Z,10.37
2023-03-27T03:45:54.077Z,16.38
2023-03-27T03:48:58.347Z,16.30
2023-03-27T03:52:03.563Z,19.40
2023-03-27T03:55:08.735Z,15.23
2023-03-27T03:58:11.710Z,12.73
2023-03-27T04:01:15.676Z,14.82
2023-03-27T04:04:18.422Z,9.50
2023-03-27T04:07:21.854Z,13.80
2023-03-27T04:10:24.620Z,8.98
2023-03-27T04:13:27.292Z,11.53
2023-03-27T04:16:31.228Z,16.17
2023-03-27T04:19:33.773Z,14.10
2023-03-27T04:22:38.105Z,8.63
2023-03-27T04:25:41.137Z,10.07
2023-03-27T04:28:44.209Z,12.95
2023-03-27T04:31:48.093Z,11.75
2023-03-27T04:37:54.168Z,9.60
2023-03-27T04:40:56.898Z,12.60
2023-03-27T04:43:59.599Z,12.15
2023-03-27T04:47:03.634Z,8.00
2023-03-27T04:50:08.027Z,10.23
2023-03-27T04:53:10.835Z,15.20
2023-03-27T04:56:13.337Z,12.77
2023-03-27T04:59:16.458Z,13.30
2023-03-27T05:02:21.231Z,4.05
2023-03-27T05:05:24.896Z,4.77
2023-03-27T05:08:27.405Z,10.82
2023-03-27T05:11:30.073Z,8.43
2023-03-27T05:14:32.677Z,3.60
2023-03-27T05:17:40.717Z,9.10
2023-03-27T05:20:43.853Z,8.00
2023-03-27T05:23:46.406Z,4.60
2023-03-27T05:26:49.081Z,4.90
2023-03-27T05:29:51.784Z,11.63
2023-03-27T05:32:59.240Z,5.37
2023-03-27T05:36:04.618Z,10.87
2023-03-27T05:39:07.301Z,5.53
2023-03-27T05:42:09.900Z,5.60
2023-03-27T05:45:13.069Z,9.73
2023-03-27T05:48:17.385Z,5.53
2023-03-27T05:51:19.940Z,5.63
2023-03-27T05:54:22.681Z,13.50
2023-03-27T05:57:25.999Z,10.77
2023-03-27T06:00:31.878Z,8.27
2023-03-27T06:03:38.517Z,10.67
2023-03-27T06:06:41.817Z,7.07
2023-03-27T06:09:45.154Z,4.20
2023-03-27T06:12:48.984Z,13.07
2023-03-27T06:15:54.728Z,23.10
2023-03-27T06:18:58.986Z,4.40
2023-03-27T06:22:01.691Z,11.70
2023-03-27T06:25:05.728Z,4.87
2023-03-27T06:28:09.125Z,6.67
2023-03-27T06:31:12.015Z,11.40
2023-03-27T06:34:15.910Z,1.30
2023-03-27T06:40:22.887Z,6.40
2023-03-27T06:43:25.867Z,8.23
2023-03-27T06:46:42.850Z,5.23
2023-03-27T06:49:49.268Z,9.30
2023-03-27T06:55:54.517Z,15.27
2023-03-27T06:58:57.701Z,9.10
2023-03-27T07:02:00.391Z,7.28
2023-03-27T07:05:05.522Z,4.17
2023-03-27T07:08:21.801Z,9.00
2023-03-27T07:11:27.027Z,13.80
2023-03-27T07:14:29.585Z,6.97
2023-03-27T07:17:42.114Z,9.03
2023-03-27T07:20:52.313Z,10.10
2023-03-27T07:26:57.430Z,7.67
2023-03-27T07:30:01.385Z,4.32
2023-03-27T07:36:09.558Z,7.43
2023-03-27T07:39:14.170Z,7.90
2023-03-27T07:42:16.983Z,5.00
2023-03-27T07:45:19.900Z,3.90
2023-03-27T07:48:23.067Z,9.10
2023-03-27T07:51:27.458Z,13.13
2023-03-27T07:54:31.319Z,5.33
2023-03-27T08:00:52.893Z,7.27
2023-03-27T08:03:55.710Z,10.63
2023-03-27T08:07:00.573Z,1.77
2023-03-27T08:10:05.023Z,6.60
2023-03-27T08:13:08.388Z,11.87
2023-03-27T08:16:12.418Z,2.80
2023-03-27T08:19:15.155Z,4.57
2023-03-27T08:22:21.036Z,5.37
2023-03-27T08:25:23.587Z,9.00
2023-03-27T08:28:27.424Z,9.27
2023-03-27T08:34:33.808Z,4.03
2023-03-27T08:37:37.749Z,4.20
2023-03-27T08:40:41.699Z,4.03
2023-03-27T08:43:45.639Z,3.70
2023-03-27T08:49:54.175Z,4.45
2023-03-27T08:52:59.446Z,6.70
2023-03-27T08:56:03.296Z,4.13
2023-03-27T09:02:11.428Z,5.10
2023-03-27T09:05:18.590Z,2.93
2023-03-27T09:08:35.784Z,12.13
2023-03-27T09:11:46.902Z,5.67
2023-03-27T09:14:52.958Z,7.70
2023-03-27T09:18:00.088Z,0.83
2023-03-27T09:21:06.403Z,4.90
2023-03-27T09:24:15.592Z,8.27
2023-03-27T09:27:21.877Z,3.67
2023-03-27T09:30:26.401Z,6.07
2023-03-27T09:33:28.992Z,4.93
2023-03-27T09:36:31.970Z,1.67
2023-03-27T09:39:37.017Z,4.82
2023-03-27T09:42:41.072Z,3.20
2023-03-27T10:03:23.400Z,8.07
2023-03-27T10:06:27.972Z,3.08
2023-03-27T10:09:32.105Z,3.90
2023-03-27T10:12:36.374Z,2.50
2023-03-27T10:15:40.357Z,5.33
2023-03-27T10:18:44.476Z,12.83
2023-03-27T10:21:47.175Z,9.23
2023-03-27T10:24:49.897Z,5.47
2023-03-27T10:27:54.800Z,4.47
2023-03-27T10:31:01.885Z,1.67
2023-03-27T10:34:06.598Z,4.87
2023-03-27T10:37:27.241Z,3.57
2023-03-27T10:40:32.045Z,7.23
2023-03-27T10:43:40.202Z,2.30
2023-03-27T10:46:43.528Z,2.30
2023-03-27T10:49:49.681Z,8.52
2023-03-27T10:53:01.711Z,5.20
2023-03-27T10:56:12.262Z,3.03
2023-03-27T10:59:25.462Z,6.30
2023-03-27T11:02:38.906Z,3.90
2023-03-27T11:05:44.623Z,3.57
2023-03-27T11:08:55.965Z,5.03
2023-03-27T11:12:01.055Z,2.57
2023-03-27T11:15:09.100Z,0.40
2023-03-27T11:18:15.393Z,2.90
2023-03-27T11:21:22.181Z,3.30
2023-03-27T11:24:30.969Z,3.77
2023-03-27T11:27:37.119Z,5.83
2023-03-27T11:30:44.358Z,3.03
2023-03-27T11:33:51.333Z,3.33
2023-03-27T11:36:56.303Z,4.97
2023-03-27T11:40:05.105Z,3.73
2023-03-27T11:43:10.879Z,2.23
2023-03-27T11:46:29.675Z,2.27
2023-03-27T11:49:44.736Z,9.30
2023-03-27T11:52:56.634Z,3.87
2023-03-27T11:56:10.902Z,3.70
2023-03-27T11:59:28.334Z,2.27
2023-03-27T12:02:55.032Z,8.30
2023-03-27T12:06:05.373Z,6.37
2023-03-27T12:09:33.590Z,5.83
2023-03-27T12:12:52.001Z,2.50
2023-03-27T12:16:03.119Z,2.50
2023-03-27T12:19:28.479Z,1.10
2023-03-27T12:22:42.445Z,4.90
2023-03-27T12:25:58.126Z,3.00
2023-03-27T12:29:23.426Z,2.10
2023-03-27T12:32:42.897Z,2.60
2023-03-27T12:35:49.343Z,4.73
2023-03-27T12:38:52.940Z,4.77
2023-03-27T12:42:15.959Z,3.97
2023-03-27T12:45:22.442Z,3.30
2023-03-27T12:48:25.969Z,2.23
2023-03-27T12:51:38.755Z,1.88
2023-03-27T12:54:42.387Z,8.13
2023-03-27T12:57:47.639Z,1.75
2023-03-27T13:00:54.637Z,4.97
2023-03-27T13:04:12.792Z,2.97
2023-03-27T13:07:20.755Z,4.93
2023-03-27T13:10:34.759Z,3.53
2023-03-27T13:13:51.631Z,1.47
2023-03-27T13:17:02.143Z,3.37
2023-03-27T13:20:14.157Z,1.20
2023-03-27T13:23:41.732Z,5.57
2023-03-27T13:26:54.023Z,2.23
2023-03-27T13:29:58.031Z,1.77
2023-03-27T13:33:12.000Z,4.17
2023-03-27T13:39:24.611Z,5.47
2023-03-27T13:42:29.407Z,0.87
2023-03-27T13:45:40.094Z,10.37
2023-03-27T13:49:04.827Z,3.67
2023-03-27T13:52:22.906Z,4.83
2023-03-27T13:55:36.876Z,6.47
2023-03-27T14:01:58.037Z,5.73
2023-03-27T14:05:10.904Z,6.55
2023-03-27T14:08:23.591Z,4.73
2023-03-27T14:11:41.865Z,7.50
2023-03-27T14:14:53.945Z,2.10
2023-03-27T14:18:06.678Z,4.30
2023-03-27T14:21:11.678Z,5.93
2023-03-27T14:24:25.558Z,8.00
2023-03-27T14:30:32.596Z,4.93
2023-03-27T14:33:39.139Z,5.03
2023-03-27T14:36:45.940Z,3.43
2023-03-27T14:39:54.158Z,3.80
2023-03-27T14:42:57.874Z,1.60
2023-03-27T14:49:05.717Z,7.18
2023-03-27T14:52:09.000Z,5.63
2023-03-27T14:55:13.596Z,6.00
2023-03-27T14:58:18.542Z,3.50
2023-03-27T15:01:21.305Z,4.47
2023-03-27T15:04:25.708Z,2.13
2023-03-27T15:07:30.500Z,1.50
2023-03-27T15:10:33.601Z,7.57
2023-03-27T15:13:36.845Z,1.65
2023-03-27T15:16:39.901Z,1.25
2023-03-27T15:19:48.870Z,3.10
2023-03-27T15:22:55.407Z,7.27
2023-03-27T15:26:01.710Z,2.60
2023-03-27T15:29:07.708Z,5.67
2023-03-27T15:32:14.609Z,2.50
2023-03-27T15:35:20.613Z,4.20
2023-03-27T15:38:28.876Z,4.47
2023-03-27T15:41:38.564Z,3.80
2023-03-27T15:44:41.298Z,3.93
2023-03-27T15:47:45.468Z,6.27
2023-03-27T15:50:59.514Z,1.30
2023-03-27T15:57:09.768Z,3.90
2023-03-27T16:00:14.929Z,2.20
2023-03-27T16:03:21.351Z,5.07
2023-03-27T16:06:28.182Z,3.77
2023-03-27T16:09:34.898Z,5.77
2023-03-27T16:12:51.905Z,1.23
2023-03-27T16:15:58.785Z,5.13
2023-03-27T16:19:04.021Z,1.10
2023-03-27T16:22:08.338Z,2.40
2023-03-27T16:25:13.134Z,3.57
2023-03-27T16:28:17.558Z,2.50
2023-03-27T16:31:20.952Z,0.87
2023-03-27T16:34:23.771Z,2.22
2023-03-27T16:37:28.329Z,2.75
2023-03-27T16:40:31.115Z,2.20
2023-03-27T16:43:34.026Z,5.03
2023-03-27T16:46:37.202Z,4.00
2023-03-27T16:49:40.067Z,2.00
2023-03-27T16:52:43.982Z,1.02
2023-03-27T16:55:46.561Z,5.90
2023-03-27T16:58:49.120Z,2.80
2023-03-27T17:01:51.656Z,2.53
2023-03-27T17:04:54.197Z,5.23
2023-03-27T17:07:58.181Z,1.20
2023-03-27T17:11:03.014Z,1.93
2023-03-27T17:14:05.832Z,2.03
2023-03-27T17:17:08.501Z,1.13
2023-03-27T17:20:12.036Z,4.97
2023-03-27T17:23:16.282Z,3.08
2023-03-27T17:26:23.635Z,3.83
2023-03-27T17:29:26.370Z,4.43
2023-03-27T17:32:29.066Z,8.93
2023-03-27T17:35:31.758Z,2.83
2023-03-27T17:38:36.089Z,5.97
2023-03-27T17:41:38.604Z,2.03
2023-03-27T17:44:41.508Z,3.60
2023-03-27T17:47:44.477Z,3.33
2023-03-27T17:50:54.785Z,5.07
2023-03-27T17:54:02.112Z,5.68
2023-03-27T17:57:05.352Z,3.60
2023-03-27T18:00:10.515Z,5.80
2023-03-27T18:03:13.407Z,2.67
2023-03-27T18:06:17.636Z,5.18
2023-03-27T18:09:21.717Z,6.30
2023-03-27T18:12:24.356Z,3.23
2023-03-27T18:15:27.081Z,3.67
2023-03-27T18:18:29.651Z,5.97
2023-03-27T18:21:32.192Z,5.57
2023-03-27T18:24:47.661Z,4.40
2023-03-27T18:28:16.094Z,3.80
2023-03-27T18:31:33.364Z,5.03
2023-03-27T18:34:44.870Z,7.33
2023-03-27T18:37:47.514Z,3.17
2023-03-27T18:40:52.144Z,4.00
2023-03-27T18:43:54.648Z,4.30
2023-03-27T18:46:57.152Z,1.70
2023-03-27T18:49:59.836Z,4.60
2023-03-27T18:53:02.815Z,5.30
2023-03-27T18:56:08.028Z,4.75
2023-03-27T18:59:11.071Z,4.67
2023-03-27T19:02:15.406Z,2.78
2023-03-27T19:05:18.332Z,4.47
2023-03-27T19:08:21.520Z,3.47
2023-03-27T19:11:25.987Z,3.97
2023-03-27T19:14:28.566Z,8.60
2023-03-27T19:17:31.162Z,8.50
2023-03-27T19:20:33.775Z,8.80
2023-03-27T19:23:36.311Z,1.70
2023-03-27T19:26:41.011Z,2.63
2023-03-27T19:29:43.543Z,1.00
2023-03-27T19:32:46.327Z,2.10
2023-03-27T19:35:53.114Z,2.63
2023-03-27T19:38:55.724Z,1.90
2023-03-27T19:41:59.621Z,1.63
2023-03-27T19:48:06.937Z,1.57
2023-03-27T19:51:09.557Z,1.43
2023-03-27T19:54:12.050Z,3.70
2023-03-27T19:57:16.157Z,3.43
2023-03-27T20:00:19.823Z,1.87
2023-03-27T20:03:24.009Z,2.35
2023-03-27T20:06:28.802Z,1.60
2023-03-27T20:09:31.386Z,3.07
2023-03-27T20:12:35.229Z,2.07
2023-03-27T20:18:42.723Z,3.53
2023-03-27T20:21:45.349Z,2.23
2023-03-27T20:24:47.875Z,3.87
2023-03-27T20:27:52.140Z,5.67
2023-03-27T20:30:54.683Z,2.83
2023-03-27T20:33:57.138Z,4.90
2023-03-27T20:37:00.789Z,2.60
2023-03-27T20:40:06.139Z,5.25
2023-03-27T20:43:10.426Z,3.20
2023-03-27T20:46:14.124Z,3.07
2023-03-27T20:49:37.608Z,7.78
2023-03-27T20:52:44.954Z,7.20
2023-03-27T20:55:59.057Z,3.67
2023-03-27T20:59:03.920Z,3.83
2023-03-27T21:02:06.883Z,2.70
2023-03-27T21:05:09.670Z,3.60
2023-03-27T21:08:12.274Z,1.37
2023-03-27T21:11:15.131Z,6.27
2023-03-27T21:14:19.249Z,2.15
2023-03-27T21:17:21.818Z,2.80
2023-03-27T21:20:24.479Z,3.93
2023-03-27T21:23:27.062Z,5.33
2023-03-27T21:26:29.668Z,3.37
2023-03-27T21:29:33.658Z,2.90
2023-03-27T21:32:36.485Z,2.70
2023-03-27T21:35:41.378Z,6.37
2023-03-27T21:38:44.820Z,2.90
2023-03-27T21:41:47.286Z,1.95
2023-03-27T21:44:54.859Z,3.93
2023-03-27T21:47:59.367Z,4.50
2023-03-27T21:51:02.726Z,1.53
2023-03-27T21:54:05.607Z,1.60
2023-03-27T21:57:08.316Z,1.87
2023-03-27T22:00:14.443Z,2.47
2023-03-27T22:03:18.535Z,3.00
2023-03-27T22:06:21.058Z,3.40
2023-03-27T22:09:23.542Z,5.47
2023-03-27T22:12:26.188Z,3.67
2023-03-27T22:15:30.396Z,3.77
2023-03-27T22:18:33.183Z,2.27
2023-03-27T22:21:35.870Z,3.27
2023-03-27T22:24:38.708Z,1.60
2023-03-27T22:27:41.343Z,5.40
2023-03-27T22:30:45.256Z,3.67
2023-03-27T22:36:50.305Z,2.23
2023-03-27T22:39:53.062Z,2.87
2023-03-27T22:42:55.934Z,1.10
2023-03-27T22:46:05.669Z,2.43
2023-03-27T22:49:08.426Z,2.83
2023-03-27T22:52:11.054Z,1.13
2023-03-27T22:55:13.518Z,2.97
2023-03-27T22:58:16.494Z,3.53
2023-03-27T23:01:20.485Z,1.15
2023-03-27T23:04:23.095Z,1.70
2023-03-27T23:07:25.666Z,3.07
2023-03-27T23:10:28.133Z,1.57
2023-03-27T23:13:31.886Z,2.90
2023-03-27T23:16:36.717Z,1.27
2023-03-27T23:19:39.406Z,3.93
2023-03-27T23:22:41.977Z,3.30
2023-03-27T23:25:44.507Z,3.90
2023-03-27T23:28:47.152Z,5.00
2023-03-27T23:31:51.224Z,3.60
2023-03-27T23:34:53.712Z,4.33
2023-03-27T23:37:56.863Z,1.33
2023-03-27T23:41:00.598Z,3.75
2023-03-27T23:44:03.195Z,5.93
2023-03-27T23:47:07.278Z,1.80
2023-03-27T23:50:10.414Z,2.10
2023-03-27T23:53:13.368Z,4.93
2023-03-27T23:56:16.101Z,1.45
2023-03-27T23:59:18.662Z,4.23
